sensor_id;sensor_type;location;lat;lon;timestamp;P1;durP1;ratioP1;P2;durP2;ratioP2
66870;SDS011;53780;44.998;9.926;2022-07-04T00:00:52;23.95;;;13.25;;
66870;SDS011;53780;44.998;9.926;2022-07-04T00:03:56;21.92;;;12.93;;
66870;SDS011;53780;44.998;9.926;2022-07-04T00:07:01;23.90;;;12.57;;
66870;SDS011;53780;44.998;9.926;2022-07-04T00:10:05;24.73;;;13.65;;
66870;SDS011;53780;44.998;9.926;2022-07-04T00:13:10;18.47;;;12.47;;
66870;SDS011;53780;44.998;9.926;2022-07-04T00:16:17;17.33;;;10.32;;
66870;SDS011;53780;44.998;9.926;2022-07-04T00:19:22;17.58;;;10.52;;
66870;SDS011;53780;44.998;9.926;2022-07-04T00:22:26;13.25;;;8.10;;
66870;SDS011;53780;44.998;9.926;2022-07-04T00:25:30;15.98;;;8.90;;
66870;SDS011;53780;44.998;9.926;2022-07-04T00:28:34;16.90;;;11.23;;
66870;SDS011;53780;44.998;9.926;2022-07-04T00:31:38;15.50;;;10.18;;
66870;SDS011;53780;44.998;9.926;2022-07-04T00:34:42;15.23;;;10.50;;
66870;SDS011;53780;44.998;9.926;2022-07-04T00:37:46;14.90;;;10.15;;
66870;SDS011;53780;44.998;9.926;2022-07-04T00:40:50;14.07;;;9.02;;
66870;SDS011;53780;44.998;9.926;2022-07-04T00:44:03;12.60;;;7.07;;
66870;SDS011;53780;44.998;9.926;2022-07-04T00:47:10;9.77;;;5.70;;
66870;SDS011;53780;44.998;9.926;2022-07-04T00:50:13;11.98;;;6.93;;
66870;SDS011;53780;44.998;9.926;2022-07-04T00:53:18;10.70;;;6.30;;
66870;SDS011;53780;44.998;9.926;2022-07-04T00:56:23;11.52;;;6.20;;
66870;SDS011;53780;44.998;9.926;2022-07-04T00:59:28;10.43;;;5.70;;
66870;SDS011;53780;44.998;9.926;2022-07-04T01:02:32;10.95;;;6.00;;
66870;SDS011;53780;44.998;9.926;2022-07-04T01:05:36;11.68;;;5.60;;
66870;SDS011;53780;44.998;9.926;2022-07-04T01:08:41;9.60;;;6.07;;
66870;SDS011;53780;44.998;9.926;2022-07-04T01:11:48;10.05;;;5.93;;
66870;SDS011;53780;44.998;9.926;2022-07-04T01:14:55;10.47;;;5.67;;
66870;SDS011;53780;44.998;9.926;2022-07-04T01:17:58;10.45;;;5.88;;
66870;SDS011;53780;44.998;9.926;2022-07-04T01:21:02;10.75;;;6.10;;
66870;SDS011;53780;44.998;9.926;2022-07-04T01:24:10;9.52;;;5.85;;
66870;SDS011;53780;44.998;9.926;2022-07-04T01:27:15;12.35;;;7.78;;
66870;SDS011;53780;44.998;9.926;2022-07-04T01:30:19;12.00;;;8.33;;
66870;SDS011;53780;44.998;9.926;2022-07-04T01:33:23;14.50;;;7.85;;
66870;SDS011;53780;44.998;9.926;2022-07-04T01:36:27;11.55;;;7.82;;
66870;SDS011;53780;44.998;9.926;2022-07-04T01:39:31;14.13;;;9.93;;
66870;SDS011;53780;44.998;9.926;2022-07-04T01:42:36;16.60;;;9.68;;
66870;SDS011;53780;44.998;9.926;2022-07-04T01:45:39;14.63;;;9.00;;
66870;SDS011;53780;44.998;9.926;2022-07-04T01:48:44;11.85;;;7.68;;
66870;SDS011;53780;44.998;9.926;2022-07-04T01:51:48;10.07;;;6.95;;
66870;SDS011;53780;44.998;9.926;2022-07-04T01:54:53;15.25;;;8.05;;
66870;SDS011;53780;44.998;9.926;2022-07-04T01:57:57;13.00;;;8.30;;
66870;SDS011;53780;44.998;9.926;2022-07-04T02:01:03;11.37;;;6.50;;
66870;SDS011;53780;44.998;9.926;2022-07-04T02:04:25;10.75;;;6.22;;
66870;SDS011;53780;44.998;9.926;2022-07-04T02:07:29;10.45;;;7.10;;
66870;SDS011;53780;44.998;9.926;2022-07-04T02:10:33;12.95;;;7.30;;
66870;SDS011;53780;44.998;9.926;2022-07-04T02:13:38;11.57;;;6.47;;
66870;SDS011;53780;44.998;9.926;2022-07-04T02:16:41;9.00;;;5.90;;
66870;SDS011;53780;44.998;9.926;2022-07-04T02:19:45;9.90;;;6.35;;
66870;SDS011;53780;44.998;9.926;2022-07-04T02:22:49;10.85;;;7.20;;
66870;SDS011;53780;44.998;9.926;2022-07-04T02:25:53;13.45;;;7.45;;
66870;SDS011;53780;44.998;9.926;2022-07-04T02:28:57;10.60;;;7.47;;
66870;SDS011;53780;44.998;9.926;2022-07-04T02:32:01;10.90;;;6.93;;
66870;SDS011;53780;44.998;9.926;2022-07-04T02:35:06;14.20;;;7.00;;
66870;SDS011;53780;44.998;9.926;2022-07-04T02:38:11;10.48;;;7.60;;
66870;SDS011;53780;44.998;9.926;2022-07-04T02:41:15;11.48;;;7.15;;
66870;SDS011;53780;44.998;9.926;2022-07-04T02:44:18;11.32;;;7.50;;
66870;SDS011;53780;44.998;9.926;2022-07-04T02:47:23;12.77;;;9.07;;
66870;SDS011;53780;44.998;9.926;2022-07-04T02:50:27;18.42;;;10.25;;
66870;SDS011;53780;44.998;9.926;2022-07-04T02:53:31;14.88;;;9.65;;
66870;SDS011;53780;44.998;9.926;2022-07-04T02:56:35;14.95;;;10.15;;
66870;SDS011;53780;44.998;9.926;2022-07-04T02:59:39;16.77;;;10.43;;
66870;SDS011;53780;44.998;9.926;2022-07-04T03:02:43;17.13;;;11.13;;
66870;SDS011;53780;44.998;9.926;2022-07-04T03:05:47;17.00;;;10.50;;
66870;SDS011;53780;44.998;9.926;2022-07-04T03:08:51;15.38;;;10.90;;
66870;SDS011;53780;44.998;9.926;2022-07-04T03:11:56;17.67;;;10.90;;
66870;SDS011;53780;44.998;9.926;2022-07-04T03:14:59;16.63;;;10.57;;
66870;SDS011;53780;44.998;9.926;2022-07-04T03:18:03;17.20;;;10.83;;
66870;SDS011;53780;44.998;9.926;2022-07-04T03:21:07;15.25;;;10.57;;
66870;SDS011;53780;44.998;9.926;2022-07-04T03:24:11;17.00;;;11.43;;
66870;SDS011;53780;44.998;9.926;2022-07-04T03:27:16;16.05;;;11.15;;
66870;SDS011;53780;44.998;9.926;2022-07-04T03:30:19;17.60;;;11.65;;
66870;SDS011;53780;44.998;9.926;2022-07-04T03:33:23;16.30;;;11.33;;
66870;SDS011;53780;44.998;9.926;2022-07-04T03:36:27;17.58;;;11.75;;
66870;SDS011;53780;44.998;9.926;2022-07-04T03:39:31;18.60;;;12.43;;
66870;SDS011;53780;44.998;9.926;2022-07-04T03:42:38;17.13;;;11.63;;
66870;SDS011;53780;44.998;9.926;2022-07-04T03:45:41;18.13;;;11.88;;
66870;SDS011;53780;44.998;9.926;2022-07-04T03:48:45;19.07;;;11.17;;
66870;SDS011;53780;44.998;9.926;2022-07-04T03:51:49;19.00;;;12.38;;
66870;SDS011;53780;44.998;9.926;2022-07-04T03:54:53;19.30;;;13.30;;
66870;SDS011;53780;44.998;9.926;2022-07-04T03:57:57;17.55;;;12.10;;
66870;SDS011;53780;44.998;9.926;2022-07-04T04:01:01;19.45;;;12.60;;
66870;SDS011;53780;44.998;9.926;2022-07-04T04:04:05;19.27;;;12.10;;
66870;SDS011;53780;44.998;9.926;2022-07-04T04:07:28;18.38;;;12.10;;
66870;SDS011;53780;44.998;9.926;2022-07-04T04:10:31;20.85;;;11.82;;
66870;SDS011;53780;44.998;9.926;2022-07-04T04:13:35;16.63;;;11.57;;
66870;SDS011;53780;44.998;9.926;2022-07-04T04:16:39;20.48;;;13.82;;
66870;SDS011;53780;44.998;9.926;2022-07-04T04:19:44;26.43;;;14.60;;
66870;SDS011;53780;44.998;9.926;2022-07-04T04:22:48;26.13;;;17.75;;
66870;SDS011;53780;44.998;9.926;2022-07-04T04:25:53;25.95;;;17.30;;
66870;SDS011;53780;44.998;9.926;2022-07-04T04:28:58;28.83;;;17.58;;
66870;SDS011;53780;44.998;9.926;2022-07-04T04:32:01;26.95;;;17.80;;
66870;SDS011;53780;44.998;9.926;2022-07-04T04:35:06;20.70;;;13.53;;
66870;SDS011;53780;44.998;9.926;2022-07-04T04:38:10;26.95;;;18.05;;
66870;SDS011;53780;44.998;9.926;2022-07-04T04:41:14;22.58;;;14.50;;
66870;SDS011;53780;44.998;9.926;2022-07-04T04:44:20;23.30;;;13.10;;
66870;SDS011;53780;44.998;9.926;2022-07-04T04:47:23;20.80;;;13.57;;
66870;SDS011;53780;44.998;9.926;2022-07-04T04:50:27;25.87;;;15.23;;
66870;SDS011;53780;44.998;9.926;2022-07-04T04:53:31;23.67;;;15.48;;
66870;SDS011;53780;44.998;9.926;2022-07-04T04:56:35;26.80;;;15.70;;
66870;SDS011;53780;44.998;9.926;2022-07-04T04:59:38;20.70;;;13.75;;
66870;SDS011;53780;44.998;9.926;2022-07-04T05:02:42;21.50;;;13.05;;
66870;SDS011;53780;44.998;9.926;2022-07-04T05:05:46;17.33;;;9.90;;
66870;SDS011;53780;44.998;9.926;2022-07-04T05:08:50;14.25;;;9.20;;
66870;SDS011;53780;44.998;9.926;2022-07-04T05:11:54;16.00;;;10.07;;
66870;SDS011;53780;44.998;9.926;2022-07-04T05:14:57;17.80;;;10.40;;
66870;SDS011;53780;44.998;9.926;2022-07-04T05:18:01;14.57;;;8.95;;
66870;SDS011;53780;44.998;9.926;2022-07-04T05:21:05;17.67;;;9.00;;
66870;SDS011;53780;44.998;9.926;2022-07-04T05:24:09;14.38;;;9.90;;
66870;SDS011;53780;44.998;9.926;2022-07-04T05:27:14;18.23;;;11.50;;
66870;SDS011;53780;44.998;9.926;2022-07-04T05:30:18;20.60;;;12.98;;
66870;SDS011;53780;44.998;9.926;2022-07-04T05:33:22;22.40;;;12.57;;
66870;SDS011;53780;44.998;9.926;2022-07-04T05:36:25;26.30;;;13.30;;
66870;SDS011;53780;44.998;9.926;2022-07-04T05:39:29;19.70;;;13.30;;
66870;SDS011;53780;44.998;9.926;2022-07-04T05:42:34;22.08;;;14.25;;
66870;SDS011;53780;44.998;9.926;2022-07-04T05:45:37;24.92;;;15.00;;
66870;SDS011;53780;44.998;9.926;2022-07-04T05:48:42;23.30;;;15.68;;
66870;SDS011;53780;44.998;9.926;2022-07-04T05:51:45;24.13;;;15.93;;
66870;SDS011;53780;44.998;9.926;2022-07-04T05:54:49;28.40;;;17.45;;
66870;SDS011;53780;44.998;9.926;2022-07-04T05:57:53;28.27;;;18.08;;
66870;SDS011;53780;44.998;9.926;2022-07-04T06:00:57;24.50;;;15.48;;
66870;SDS011;53780;44.998;9.926;2022-07-04T06:04:03;14.82;;;10.10;;
66870;SDS011;53780;44.998;9.926;2022-07-04T06:07:07;19.17;;;8.17;;
66870;SDS011;53780;44.998;9.926;2022-07-04T06:10:11;11.82;;;7.22;;
66870;SDS011;53780;44.998;9.926;2022-07-04T06:13:15;16.17;;;5.30;;
66870;SDS011;53780;44.998;9.926;2022-07-04T06:16:19;8.10;;;4.55;;
66870;SDS011;53780;44.998;9.926;2022-07-04T06:19:23;9.55;;;4.68;;
66870;SDS011;53780;44.998;9.926;2022-07-04T06:22:27;10.40;;;4.43;;
66870;SDS011;53780;44.998;9.926;2022-07-04T06:25:30;9.07;;;4.55;;
66870;SDS011;53780;44.998;9.926;2022-07-04T06:28:35;8.25;;;4.90;;
66870;SDS011;53780;44.998;9.926;2022-07-04T06:31:38;9.27;;;4.65;;
66870;SDS011;53780;44.998;9.926;2022-07-04T06:34:42;9.30;;;5.45;;
66870;SDS011;53780;44.998;9.926;2022-07-04T06:38:04;8.17;;;4.80;;
66870;SDS011;53780;44.998;9.926;2022-07-04T06:41:09;11.45;;;4.57;;
66870;SDS011;53780;44.998;9.926;2022-07-04T06:44:15;10.30;;;5.63;;
66870;SDS011;53780;44.998;9.926;2022-07-04T06:47:18;12.57;;;6.80;;
66870;SDS011;53780;44.998;9.926;2022-07-04T06:50:22;14.73;;;8.75;;
66870;SDS011;53780;44.998;9.926;2022-07-04T06:53:26;10.63;;;7.23;;
66870;SDS011;53780;44.998;9.926;2022-07-04T06:56:30;9.90;;;6.05;;
66870;SDS011;53780;44.998;9.926;2022-07-04T06:59:34;12.50;;;7.32;;
66870;SDS011;53780;44.998;9.926;2022-07-04T07:02:38;16.98;;;8.57;;
66870;SDS011;53780;44.998;9.926;2022-07-04T07:05:42;16.08;;;10.05;;
66870;SDS011;53780;44.998;9.926;2022-07-04T07:08:46;20.50;;;10.53;;
66870;SDS011;53780;44.998;9.926;2022-07-04T07:11:49;21.15;;;10.60;;
66870;SDS011;53780;44.998;9.926;2022-07-04T07:14:53;16.83;;;10.80;;
66870;SDS011;53780;44.998;9.926;2022-07-04T07:17:57;21.60;;;11.45;;
66870;SDS011;53780;44.998;9.926;2022-07-04T07:21:01;18.88;;;13.32;;
66870;SDS011;53780;44.998;9.926;2022-07-04T07:24:06;20.87;;;13.83;;
66870;SDS011;53780;44.998;9.926;2022-07-04T07:27:10;23.05;;;12.75;;
66870;SDS011;53780;44.998;9.926;2022-07-04T07:30:14;26.33;;;13.77;;
66870;SDS011;53780;44.998;9.926;2022-07-04T07:33:18;23.98;;;12.52;;
66870;SDS011;53780;44.998;9.926;2022-07-04T07:36:22;18.13;;;12.13;;
66870;SDS011;53780;44.998;9.926;2022-07-04T07:39:26;16.67;;;12.20;;
66870;SDS011;53780;44.998;9.926;2022-07-04T07:42:30;19.77;;;12.02;;
66870;SDS011;53780;44.998;9.926;2022-07-04T07:45:34;21.02;;;12.45;;
66870;SDS011;53780;44.998;9.926;2022-07-04T07:48:38;19.00;;;11.45;;
66870;SDS011;53780;44.998;9.926;2022-07-04T07:51:42;20.30;;;11.85;;
66870;SDS011;53780;44.998;9.926;2022-07-04T07:54:46;20.00;;;12.10;;
66870;SDS011;53780;44.998;9.926;2022-07-04T07:57:50;22.73;;;12.07;;
66870;SDS011;53780;44.998;9.926;2022-07-04T08:00:54;23.80;;;12.48;;
66870;SDS011;53780;44.998;9.926;2022-07-04T08:03:57;20.13;;;11.05;;
66870;SDS011;53780;44.998;9.926;2022-07-04T08:07:20;24.23;;;11.45;;
66870;SDS011;53780;44.998;9.926;2022-07-04T08:10:24;23.33;;;14.20;;
66870;SDS011;53780;44.998;9.926;2022-07-04T08:13:28;21.23;;;12.85;;
66870;SDS011;53780;44.998;9.926;2022-07-04T08:16:32;20.98;;;11.85;;
66870;SDS011;53780;44.998;9.926;2022-07-04T08:19:37;18.35;;;10.77;;
66870;SDS011;53780;44.998;9.926;2022-07-04T08:22:40;24.30;;;13.43;;
66870;SDS011;53780;44.998;9.926;2022-07-04T08:25:45;18.87;;;10.73;;
66870;SDS011;53780;44.998;9.926;2022-07-04T08:28:49;22.05;;;11.35;;
66870;SDS011;53780;44.998;9.926;2022-07-04T08:31:55;14.50;;;9.13;;
66870;SDS011;53780;44.998;9.926;2022-07-04T08:34:59;13.77;;;9.55;;
66870;SDS011;53780;44.998;9.926;2022-07-04T08:38:03;16.60;;;10.57;;
66870;SDS011;53780;44.998;9.926;2022-07-04T08:41:07;19.27;;;10.27;;
66870;SDS011;53780;44.998;9.926;2022-07-04T08:44:10;19.75;;;11.60;;
66870;SDS011;53780;44.998;9.926;2022-07-04T08:47:19;17.45;;;10.63;;
66870;SDS011;53780;44.998;9.926;2022-07-04T08:50:29;19.45;;;10.77;;
66870;SDS011;53780;44.998;9.926;2022-07-04T08:53:38;16.20;;;10.02;;
66870;SDS011;53780;44.998;9.926;2022-07-04T08:56:47;15.77;;;10.30;;
66870;SDS011;53780;44.998;9.926;2022-07-04T09:00:09;16.92;;;10.35;;
66870;SDS011;53780;44.998;9.926;2022-07-04T09:03:13;17.50;;;10.27;;
66870;SDS011;53780;44.998;9.926;2022-07-04T09:06:17;17.63;;;10.25;;
66870;SDS011;53780;44.998;9.926;2022-07-04T09:09:21;14.20;;;9.80;;
66870;SDS011;53780;44.998;9.926;2022-07-04T09:12:27;16.33;;;11.20;;
66870;SDS011;53780;44.998;9.926;2022-07-04T09:15:31;15.88;;;9.70;;
66870;SDS011;53780;44.998;9.926;2022-07-04T09:18:37;18.08;;;11.10;;
66870;SDS011;53780;44.998;9.926;2022-07-04T09:21:47;18.65;;;11.43;;
66870;SDS011;53780;44.998;9.926;2022-07-04T09:24:52;15.95;;;11.27;;
66870;SDS011;53780;44.998;9.926;2022-07-04T09:27:59;16.33;;;10.30;;
66870;SDS011;53780;44.998;9.926;2022-07-04T09:31:14;17.75;;;9.98;;
66870;SDS011;53780;44.998;9.926;2022-07-04T09:34:22;16.23;;;11.07;;
66870;SDS011;53780;44.998;9.926;2022-07-04T09:37:37;20.13;;;11.68;;
66870;SDS011;53780;44.998;9.926;2022-07-04T09:40:45;20.40;;;12.63;;
66870;SDS011;53780;44.998;9.926;2022-07-04T09:44:14;18.97;;;10.77;;
66870;SDS011;53780;44.998;9.926;2022-07-04T09:47:19;18.45;;;13.05;;
66870;SDS011;53780;44.998;9.926;2022-07-04T09:50:27;19.48;;;11.60;;
66870;SDS011;53780;44.998;9.926;2022-07-04T09:53:32;19.42;;;11.55;;
66870;SDS011;53780;44.998;9.926;2022-07-04T09:56:43;18.02;;;11.00;;
66870;SDS011;53780;44.998;9.926;2022-07-04T09:59:48;14.20;;;9.43;;
66870;SDS011;53780;44.998;9.926;2022-07-04T10:02:53;12.43;;;8.40;;
66870;SDS011;53780;44.998;9.926;2022-07-04T10:06:05;16.77;;;9.30;;
66870;SDS011;53780;44.998;9.926;2022-07-04T10:09:19;15.07;;;9.32;;
66870;SDS011;53780;44.998;9.926;2022-07-04T10:12:27;16.33;;;9.82;;
66870;SDS011;53780;44.998;9.926;2022-07-04T10:15:32;20.33;;;10.70;;
66870;SDS011;53780;44.998;9.926;2022-07-04T10:18:37;14.15;;;8.23;;
66870;SDS011;53780;44.998;9.926;2022-07-04T10:21:41;17.77;;;10.13;;
66870;SDS011;53780;44.998;9.926;2022-07-04T10:24:45;14.70;;;8.02;;
66870;SDS011;53780;44.998;9.926;2022-07-04T10:27:49;15.00;;;8.85;;
66870;SDS011;53780;44.998;9.926;2022-07-04T10:30:55;15.80;;;8.27;;
66870;SDS011;53780;44.998;9.926;2022-07-04T10:34:01;15.68;;;8.57;;
66870;SDS011;53780;44.998;9.926;2022-07-04T10:37:06;15.18;;;8.82;;
66870;SDS011;53780;44.998;9.926;2022-07-04T10:40:11;16.90;;;9.45;;
66870;SDS011;53780;44.998;9.926;2022-07-04T10:46:52;12.20;;;8.07;;
66870;SDS011;53780;44.998;9.926;2022-07-04T10:50:00;15.48;;;9.35;;
66870;SDS011;53780;44.998;9.926;2022-07-04T10:53:10;16.35;;;9.25;;
66870;SDS011;53780;44.998;9.926;2022-07-04T10:59:26;19.17;;;12.00;;
66870;SDS011;53780;44.998;9.926;2022-07-04T11:02:33;15.63;;;9.23;;
66870;SDS011;53780;44.998;9.926;2022-07-04T11:05:38;26.00;;;9.10;;
66870;SDS011;53780;44.998;9.926;2022-07-04T11:12:24;19.58;;;11.20;;
66870;SDS011;53780;44.998;9.926;2022-07-04T11:18:38;15.43;;;9.43;;
66870;SDS011;53780;44.998;9.926;2022-07-04T11:21:42;17.23;;;9.07;;
66870;SDS011;53780;44.998;9.926;2022-07-04T11:24:47;14.23;;;8.98;;
66870;SDS011;53780;44.998;9.926;2022-07-04T11:27:52;13.65;;;8.90;;
66870;SDS011;53780;44.998;9.926;2022-07-04T11:30:57;12.05;;;8.82;;
66870;SDS011;53780;44.998;9.926;2022-07-04T11:34:04;12.57;;;8.20;;
66870;SDS011;53780;44.998;9.926;2022-07-04T11:37:08;13.00;;;8.68;;
66870;SDS011;53780;44.998;9.926;2022-07-04T11:40:12;14.32;;;9.40;;
66870;SDS011;53780;44.998;9.926;2022-07-04T11:43:33;12.45;;;7.40;;
66870;SDS011;53780;44.998;9.926;2022-07-04T11:47:06;11.93;;;7.90;;
66870;SDS011;53780;44.998;9.926;2022-07-04T11:50:19;15.63;;;7.33;;
66870;SDS011;53780;44.998;9.926;2022-07-04T11:53:23;14.80;;;7.35;;
66870;SDS011;53780;44.998;9.926;2022-07-04T11:56:27;11.50;;;7.22;;
66870;SDS011;53780;44.998;9.926;2022-07-04T11:59:31;11.32;;;6.82;;
66870;SDS011;53780;44.998;9.926;2022-07-04T12:02:35;12.60;;;6.93;;
66870;SDS011;53780;44.998;9.926;2022-07-04T12:05:40;9.23;;;6.23;;
66870;SDS011;53780;44.998;9.926;2022-07-04T12:08:45;10.45;;;6.63;;
66870;SDS011;53780;44.998;9.926;2022-07-04T12:12:07;11.48;;;7.00;;
66870;SDS011;53780;44.998;9.926;2022-07-04T12:15:12;13.23;;;7.45;;
66870;SDS011;53780;44.998;9.926;2022-07-04T12:21:21;12.07;;;6.23;;
66870;SDS011;53780;44.998;9.926;2022-07-04T12:24:26;10.50;;;6.15;;
66870;SDS011;53780;44.998;9.926;2022-07-04T12:27:32;12.32;;;7.35;;
66870;SDS011;53780;44.998;9.926;2022-07-04T12:33:53;10.52;;;6.50;;
66870;SDS011;53780;44.998;9.926;2022-07-04T12:36:59;12.80;;;5.73;;
66870;SDS011;53780;44.998;9.926;2022-07-04T12:40:06;9.55;;;6.38;;
66870;SDS011;53780;44.998;9.926;2022-07-04T12:43:11;13.15;;;6.63;;
66870;SDS011;53780;44.998;9.926;2022-07-04T12:46:31;13.60;;;6.43;;
66870;SDS011;53780;44.998;9.926;2022-07-04T12:49:36;10.18;;;6.68;;
66870;SDS011;53780;44.998;9.926;2022-07-04T12:52:45;13.77;;;6.20;;
66870;SDS011;53780;44.998;9.926;2022-07-04T12:55:49;12.93;;;5.97;;
66870;SDS011;53780;44.998;9.926;2022-07-04T12:58:53;11.52;;;6.07;;
66870;SDS011;53780;44.998;9.926;2022-07-04T13:01:57;12.18;;;6.20;;
66870;SDS011;53780;44.998;9.926;2022-07-04T13:05:00;13.95;;;6.13;;
66870;SDS011;53780;44.998;9.926;2022-07-04T13:08:07;10.57;;;6.00;;
66870;SDS011;53780;44.998;9.926;2022-07-04T13:11:12;12.75;;;6.05;;
66870;SDS011;53780;44.998;9.926;2022-07-04T13:14:34;11.50;;;6.53;;
66870;SDS011;53780;44.998;9.926;2022-07-04T13:17:38;11.05;;;6.10;;
66870;SDS011;53780;44.998;9.926;2022-07-04T13:20:42;8.02;;;6.10;;
66870;SDS011;53780;44.998;9.926;2022-07-04T13:23:46;12.70;;;6.00;;
66870;SDS011;53780;44.998;9.926;2022-07-04T13:26:50;10.88;;;7.07;;
66870;SDS011;53780;44.998;9.926;2022-07-04T13:29:54;10.30;;;6.65;;
66870;SDS011;53780;44.998;9.926;2022-07-04T13:32:58;10.23;;;6.63;;
66870;SDS011;53780;44.998;9.926;2022-07-04T13:36:01;14.35;;;7.20;;
66870;SDS011;53780;44.998;9.926;2022-07-04T13:39:06;11.33;;;6.43;;
66870;SDS011;53780;44.998;9.926;2022-07-04T13:42:10;13.30;;;6.40;;
66870;SDS011;53780;44.998;9.926;2022-07-04T13:45:16;11.32;;;6.57;;
66870;SDS011;53780;44.998;9.926;2022-07-04T13:48:21;10.55;;;6.68;;
66870;SDS011;53780;44.998;9.926;2022-07-04T13:51:26;10.20;;;6.55;;
66870;SDS011;53780;44.998;9.926;2022-07-04T13:54:29;10.77;;;6.70;;
66870;SDS011;53780;44.998;9.926;2022-07-04T13:57:33;11.43;;;6.22;;
66870;SDS011;53780;44.998;9.926;2022-07-04T14:00:38;16.48;;;6.95;;
66870;SDS011;53780;44.998;9.926;2022-07-04T14:03:45;8.95;;;6.35;;
66870;SDS011;53780;44.998;9.926;2022-07-04T14:06:50;14.00;;;7.25;;
66870;SDS011;53780;44.998;9.926;2022-07-04T14:09:54;14.07;;;6.60;;
66870;SDS011;53780;44.998;9.926;2022-07-04T14:12:58;11.98;;;5.93;;
66870;SDS011;53780;44.998;9.926;2022-07-04T14:16:02;8.77;;;6.03;;
66870;SDS011;53780;44.998;9.926;2022-07-04T14:19:09;13.85;;;6.80;;
66870;SDS011;53780;44.998;9.926;2022-07-04T14:22:13;13.32;;;6.90;;
66870;SDS011;53780;44.998;9.926;2022-07-04T14:25:17;10.77;;;5.57;;
66870;SDS011;53780;44.998;9.926;2022-07-04T14:28:21;12.75;;;6.72;;
66870;SDS011;53780;44.998;9.926;2022-07-04T14:31:25;10.70;;;7.00;;
66870;SDS011;53780;44.998;9.926;2022-07-04T14:34:29;12.55;;;6.53;;
66870;SDS011;53780;44.998;9.926;2022-07-04T14:37:32;9.15;;;6.85;;
66870;SDS011;53780;44.998;9.926;2022-07-04T14:40:36;12.87;;;6.50;;
66870;SDS011;53780;44.998;9.926;2022-07-04T14:43:42;11.73;;;6.85;;
66870;SDS011;53780;44.998;9.926;2022-07-04T14:46:47;12.18;;;6.95;;
66870;SDS011;53780;44.998;9.926;2022-07-04T14:49:51;9.98;;;6.10;;
66870;SDS011;53780;44.998;9.926;2022-07-04T14:52:55;9.55;;;6.95;;
66870;SDS011;53780;44.998;9.926;2022-07-04T14:55:59;10.43;;;6.10;;
66870;SDS011;53780;44.998;9.926;2022-07-04T14:59:05;12.40;;;6.80;;
66870;SDS011;53780;44.998;9.926;2022-07-04T15:02:09;10.23;;;6.20;;
66870;SDS011;53780;44.998;9.926;2022-07-04T15:05:13;8.00;;;6.03;;
66870;SDS011;53780;44.998;9.926;2022-07-04T15:08:17;11.70;;;6.70;;
66870;SDS011;53780;44.998;9.926;2022-07-04T15:11:21;11.93;;;6.20;;
66870;SDS011;53780;44.998;9.926;2022-07-04T15:14:25;9.70;;;5.70;;
66870;SDS011;53780;44.998;9.926;2022-07-04T15:17:30;10.82;;;6.40;;
66870;SDS011;53780;44.998;9.926;2022-07-04T15:20:33;10.07;;;6.22;;
66870;SDS011;53780;44.998;9.926;2022-07-04T15:23:55;9.02;;;6.35;;
66870;SDS011;53780;44.998;9.926;2022-07-04T15:27:15;11.53;;;6.50;;
66870;SDS011;53780;44.998;9.926;2022-07-04T15:30:19;10.13;;;5.43;;
66870;SDS011;53780;44.998;9.926;2022-07-04T15:33:24;11.25;;;6.53;;
66870;SDS011;53780;44.998;9.926;2022-07-04T15:36:28;11.70;;;6.18;;
66870;SDS011;53780;44.998;9.926;2022-07-04T15:39:33;11.02;;;5.85;;
66870;SDS011;53780;44.998;9.926;2022-07-04T15:42:36;8.73;;;5.73;;
66870;SDS011;53780;44.998;9.926;2022-07-04T15:45:41;8.77;;;6.10;;
66870;SDS011;53780;44.998;9.926;2022-07-04T15:48:45;10.88;;;6.32;;
66870;SDS011;53780;44.998;9.926;2022-07-04T15:51:49;10.45;;;6.10;;
66870;SDS011;53780;44.998;9.926;2022-07-04T15:54:53;10.32;;;5.93;;
66870;SDS011;53780;44.998;9.926;2022-07-04T15:57:58;8.53;;;5.63;;
66870;SDS011;53780;44.998;9.926;2022-07-04T16:01:01;9.63;;;6.10;;
66870;SDS011;53780;44.998;9.926;2022-07-04T16:04:06;11.48;;;6.18;;
66870;SDS011;53780;44.998;9.926;2022-07-04T16:07:10;15.82;;;6.35;;
66870;SDS011;53780;44.998;9.926;2022-07-04T16:10:14;11.07;;;6.57;;
66870;SDS011;53780;44.998;9.926;2022-07-04T16:13:18;12.17;;;7.13;;
66870;SDS011;53780;44.998;9.926;2022-07-04T16:16:22;10.70;;;6.90;;
66870;SDS011;53780;44.998;9.926;2022-07-04T16:19:26;11.98;;;7.30;;
66870;SDS011;53780;44.998;9.926;2022-07-04T16:22:30;262.73;;;16.75;;
66870;SDS011;53780;44.998;9.926;2022-07-04T16:25:34;224.82;;;11.48;;
66870;SDS011;53780;44.998;9.926;2022-07-04T16:28:38;123.77;;;7.20;;
66870;SDS011;53780;44.998;9.926;2022-07-04T16:31:42;61.92;;;4.80;;
66870;SDS011;53780;44.998;9.926;2022-07-04T16:34:46;35.60;;;3.75;;
66870;SDS011;53780;44.998;9.926;2022-07-04T16:37:50;20.17;;;2.55;;
66870;SDS011;53780;44.998;9.926;2022-07-04T16:40:54;20.35;;;3.28;;
66870;SDS011;53780;44.998;9.926;2022-07-04T16:43:58;18.87;;;3.20;;
66870;SDS011;53780;44.998;9.926;2022-07-04T16:47:02;15.20;;;2.35;;
66870;SDS011;53780;44.998;9.926;2022-07-04T16:50:07;16.23;;;3.00;;
66870;SDS011;53780;44.998;9.926;2022-07-04T16:53:11;15.85;;;3.50;;
66870;SDS011;53780;44.998;9.926;2022-07-04T16:56:15;12.27;;;2.70;;
66870;SDS011;53780;44.998;9.926;2022-07-04T16:59:19;14.57;;;2.47;;
66870;SDS011;53780;44.998;9.926;2022-07-04T17:02:23;16.45;;;2.58;;
66870;SDS011;53780;44.998;9.926;2022-07-04T17:05:28;15.65;;;2.85;;
66870;SDS011;53780;44.998;9.926;2022-07-04T17:08:32;16.52;;;3.03;;
66870;SDS011;53780;44.998;9.926;2022-07-04T17:11:38;11.15;;;3.58;;
66870;SDS011;53780;44.998;9.926;2022-07-04T17:14:41;15.60;;;3.50;;
66870;SDS011;53780;44.998;9.926;2022-07-04T17:17:45;17.33;;;4.10;;
66870;SDS011;53780;44.998;9.926;2022-07-04T17:20:49;12.32;;;3.85;;
66870;SDS011;53780;44.998;9.926;2022-07-04T17:23:53;12.35;;;3.38;;
66870;SDS011;53780;44.998;9.926;2022-07-04T17:26:56;12.77;;;3.58;;
66870;SDS011;53780;44.998;9.926;2022-07-04T17:30:01;11.63;;;4.00;;
66870;SDS011;53780;44.998;9.926;2022-07-04T17:33:04;10.48;;;3.47;;
66870;SDS011;53780;44.998;9.926;2022-07-04T17:36:08;12.27;;;4.05;;
66870;SDS011;53780;44.998;9.926;2022-07-04T17:39:13;14.50;;;4.15;;
66870;SDS011;53780;44.998;9.926;2022-07-04T17:42:17;11.23;;;3.00;;
66870;SDS011;53780;44.998;9.926;2022-07-04T17:45:21;8.23;;;2.40;;
66870;SDS011;53780;44.998;9.926;2022-07-04T17:48:25;12.85;;;3.13;;
66870;SDS011;53780;44.998;9.926;2022-07-04T17:51:28;13.20;;;4.00;;
66870;SDS011;53780;44.998;9.926;2022-07-04T17:54:32;8.10;;;2.72;;
66870;SDS011;53780;44.998;9.926;2022-07-04T17:57:36;11.30;;;3.08;;
66870;SDS011;53780;44.998;9.926;2022-07-04T18:00:40;10.47;;;2.77;;
66870;SDS011;53780;44.998;9.926;2022-07-04T18:03:44;11.95;;;3.22;;
66870;SDS011;53780;44.998;9.926;2022-07-04T18:06:47;11.70;;;3.30;;
66870;SDS011;53780;44.998;9.926;2022-07-04T18:09:51;11.80;;;3.25;;
66870;SDS011;53780;44.998;9.926;2022-07-04T18:12:56;9.02;;;3.20;;
66870;SDS011;53780;44.998;9.926;2022-07-04T18:16:00;12.13;;;3.03;;
66870;SDS011;53780;44.998;9.926;2022-07-04T18:19:04;11.25;;;2.70;;
66870;SDS011;53780;44.998;9.926;2022-07-04T18:22:08;10.45;;;2.80;;
66870;SDS011;53780;44.998;9.926;2022-07-04T18:25:12;11.43;;;3.40;;
66870;SDS011;53780;44.998;9.926;2022-07-04T18:28:16;9.48;;;2.25;;
66870;SDS011;53780;44.998;9.926;2022-07-04T18:31:20;9.90;;;2.30;;
66870;SDS011;53780;44.998;9.926;2022-07-04T18:34:24;6.82;;;2.08;;